sensor_id;sensor_type;location;lat;lon;timestamp;pressure;altitude;pressure_sealevel;temperature;humidity
6136;BME280;24008;42.664;23.372;2023-11-19T00:01:42;94710.19;;;3.09;78.05
6136;BME280;24008;42.664;23.372;2023-11-19T00:04:09;94505.78;;;2.03;77.61
6136;BME280;24008;42.664;23.372;2023-11-19T00:06:37;94600.63;;;2.72;78.05
6136;BME280;24008;42.664;23.372;2023-11-19T00:09:04;94588.06;;;2.58;78.40
6136;BME280;24008;42.664;23.372;2023-11-19T00:11:31;94667.25;;;3.09;78.22
6136;BME280;24008;42.664;23.372;2023-11-19T00:13:58;94603.03;;;2.74;78.34
6136;BME280;24008;42.664;23.372;2023-11-19T00:16:25;94521.19;;;2.26;77.81
6136;BME280;24008;42.664;23.372;2023-11-19T00:18:52;94656.06;;;3.13;77.91
6136;BME280;24008;42.664;23.372;2023-11-19T00:21:19;94663.72;;;3.12;78.48
6136;BME280;24008;42.664;23.372;2023-11-19T00:23:47;94081.94;;;-0.64;77.70
6136;BME280;24008;42.664;23.372;2023-11-19T00:26:14;94668.97;;;3.09;76.78
6136;BME280;24008;42.664;23.372;2023-11-19T00:28:40;94663.91;;;3.09;77.77
6136;BME280;24008;42.664;23.372;2023-11-19T00:31:08;94633.06;;;2.91;77.74
6136;BME280;24008;42.664;23.372;2023-11-19T00:33:35;94674.00;;;3.09;78.17
6136;BME280;24008;42.664;23.372;2023-11-19T00:36:03;94558.75;;;2.43;77.66
6136;BME280;24008;42.664;23.372;2023-11-19T00:38:30;94663.72;;;3.12;77.53
6136;BME280;24008;42.664;23.372;2023-11-19T00:40:58;94662.81;;;3.13;77.12
6136;BME280;24008;42.664;23.372;2023-11-19T00:43:25;94678.25;;;3.08;76.86
6136;BME280;24008;42.664;23.372;2023-11-19T00:45:52;94678.34;;;3.07;77.28
6136;BME280;24008;42.664;23.372;2023-11-19T00:48:19;94688.34;;;3.08;77.54
6136;BME280;24008;42.664;23.372;2023-11-19T00:50:46;94690.06;;;3.08;77.49
6136;BME280;24008;42.664;23.372;2023-11-19T00:53:13;94681.69;;;3.07;76.95
6136;BME280;24008;42.664;23.372;2023-11-19T00:55:39;94675.81;;;3.07;77.21
6136;BME280;24008;42.664;23.372;2023-11-19T00:58:07;94668.25;;;3.07;77.72
6136;BME280;24008;42.664;23.372;2023-11-19T01:00:34;94679.25;;;3.06;77.83
6136;BME280;24008;42.664;23.372;2023-11-19T01:03:01;94678.34;;;3.07;78.04
6136;BME280;24008;42.664;23.372;2023-11-19T01:05:28;94583.00;;;2.58;77.21
6136;BME280;24008;42.664;23.372;2023-11-19T01:07:54;94681.69;;;3.07;77.34
6136;BME280;24008;42.664;23.372;2023-11-19T01:10:21;94666.50;;;2.95;77.93
6136;BME280;24008;42.664;23.372;2023-11-19T01:12:48;94659.50;;;2.85;77.49
6136;BME280;24008;42.664;23.372;2023-11-19T01:15:16;94684.31;;;3.06;78.13
6136;BME280;24008;42.664;23.372;2023-11-19T01:17:44;94681.78;;;3.06;78.04
6136;BME280;24008;42.664;23.372;2023-11-19T01:20:11;94522.31;;;2.07;77.24
6136;BME280;24008;42.664;23.372;2023-11-19T01:22:38;94677.72;;;3.03;77.45
6136;BME280;24008;42.664;23.372;2023-11-19T01:25:06;94639.41;;;2.84;77.36
6136;BME280;24008;42.664;23.372;2023-11-19T01:27:33;94542.13;;;2.13;78.23
6136;BME280;24008;42.664;23.372;2023-11-19T01:30:02;94321.91;;;0.82;77.26
6136;BME280;24008;42.664;23.372;2023-11-19T01:32:31;94251.22;;;0.31;77.17
6136;BME280;24008;42.664;23.372;2023-11-19T01:34:57;94490.38;;;1.81;77.70
6136;BME280;24008;42.664;23.372;2023-11-19T01:37:24;94596.56;;;2.43;78.27
6136;BME280;24008;42.664;23.372;2023-11-19T01:39:51;94676.59;;;2.95;77.62
6136;BME280;24008;42.664;23.372;2023-11-19T01:42:18;94477.25;;;1.62;77.28
6136;BME280;24008;42.664;23.372;2023-11-19T01:44:55;94527.75;;;2.01;77.57
6136;BME280;24008;42.664;23.372;2023-11-19T01:47:24;94578.88;;;2.30;77.64
6136;BME280;24008;42.664;23.372;2023-11-19T01:49:53;94675.59;;;2.70;77.16
6136;BME280;24008;42.664;23.372;2023-11-19T01:52:20;94630.44;;;2.53;77.13
6136;BME280;24008;42.664;23.372;2023-11-19T01:54:48;94624.00;;;2.35;77.03
6136;BME280;24008;42.664;23.372;2023-11-19T01:57:15;94515.13;;;1.74;76.76
6136;BME280;24008;42.664;23.372;2023-11-19T01:59:43;94545.41;;;1.87;76.79
6136;BME280;24008;42.664;23.372;2023-11-19T02:02:10;94688.22;;;2.70;76.76
6136;BME280;24008;42.664;23.372;2023-11-19T02:04:38;94691.81;;;2.66;77.32
6136;BME280;24008;42.664;23.372;2023-11-19T02:07:07;94697.91;;;2.64;76.81
6136;BME280;24008;42.664;23.372;2023-11-19T02:09:36;94686.28;;;2.61;76.80
6136;BME280;24008;42.664;23.372;2023-11-19T02:12:03;94695.72;;;2.58;76.84
6136;BME280;24008;42.664;23.372;2023-11-19T02:14:30;94687.34;;;2.57;77.07
6136;BME280;24008;42.664;23.372;2023-11-19T02:16:58;94678.06;;;2.58;76.66
6136;BME280;24008;42.664;23.372;2023-11-19T02:19:24;94689.88;;;2.57;76.84
6136;BME280;24008;42.664;23.372;2023-11-19T02:21:51;94703.22;;;2.59;77.34
6136;BME280;24008;42.664;23.372;2023-11-19T02:24:22;94582.13;;;1.91;76.63
6136;BME280;24008;42.664;23.372;2023-11-19T02:26:57;94692.75;;;2.65;77.01
6136;BME280;24008;42.664;23.372;2023-11-19T02:29:27;94671.25;;;2.45;76.65
6136;BME280;24008;42.664;23.372;2023-11-19T02:31:54;94662.97;;;2.43;76.65
6136;BME280;24008;42.664;23.372;2023-11-19T02:34:22;94698.31;;;2.70;76.15
6136;BME280;24008;42.664;23.372;2023-11-19T02:36:48;94694.88;;;2.71;76.52
6136;BME280;24008;42.664;23.372;2023-11-19T02:39:15;94657.25;;;2.54;76.23
6136;BME280;24008;42.664;23.372;2023-11-19T02:41:46;94660.50;;;2.56;76.08
6136;BME280;24008;42.664;23.372;2023-11-19T02:44:16;94685.38;;;2.62;76.32
6136;BME280;24008;42.664;23.372;2023-11-19T02:46:44;94654.16;;;2.36;76.23
6136;BME280;24008;42.664;23.372;2023-11-19T02:49:13;94670.97;;;2.50;76.43
6136;BME280;24008;42.664;23.372;2023-11-19T02:51:40;94662.72;;;2.34;76.89
6136;BME280;24008;42.664;23.372;2023-11-19T02:54:07;94647.19;;;2.13;76.28
6136;BME280;24008;42.664;23.372;2023-11-19T02:56:34;94687.28;;;2.44;76.16
6136;BME280;24008;42.664;23.372;2023-11-19T02:59:02;94671.72;;;2.38;76.96
6136;BME280;24008;42.664;23.372;2023-11-19T03:01:34;94643.38;;;2.20;76.88
6136;BME280;24008;42.664;23.372;2023-11-19T03:04:02;94606.44;;;1.92;76.41
6136;BME280;24008;42.664;23.372;2023-11-19T03:06:30;94680.19;;;2.37;77.41
6136;BME280;24008;42.664;23.372;2023-11-19T03:08:57;94685.41;;;2.34;77.51
6136;BME280;24008;42.664;23.372;2023-11-19T03:11:24;94653.75;;;2.15;77.24
6136;BME280;24008;42.664;23.372;2023-11-19T03:13:51;94688.13;;;2.31;77.29
6136;BME280;24008;42.664;23.372;2023-11-19T03:16:17;94421.00;;;0.65;77.16
6136;BME280;24008;42.664;23.372;2023-11-19T03:18:44;94690.84;;;2.28;77.81
6136;BME280;24008;42.664;23.372;2023-11-19T03:21:12;94685.06;;;2.26;77.31
6136;BME280;24008;42.664;23.372;2023-11-19T03:23:39;94691.09;;;2.23;77.54
6136;BME280;24008;42.664;23.372;2023-11-19T03:26:06;94676.81;;;2.09;77.66
6136;BME280;24008;42.664;23.372;2023-11-19T03:28:34;94706.50;;;2.18;77.81
6136;BME280;24008;42.664;23.372;2023-11-19T03:31:04;94692.19;;;2.19;78.45
6136;BME280;24008;42.664;23.372;2023-11-19T03:33:33;94659.25;;;1.94;78.66
6136;BME280;24008;42.664;23.372;2023-11-19T03:36:00;94680.38;;;2.20;78.11
6136;BME280;24008;42.664;23.372;2023-11-19T03:38:28;94699.66;;;2.21;77.88
6136;BME280;24008;42.664;23.372;2023-11-19T03:40:55;94697.88;;;2.23;78.57
6136;BME280;24008;42.664;23.372;2023-11-19T03:43:21;94721.28;;;2.25;78.47
6136;BME280;24008;42.664;23.372;2023-11-19T03:45:48;94706.16;;;2.25;78.28
6136;BME280;24008;42.664;23.372;2023-11-19T03:48:15;94704.53;;;2.24;78.17
6136;BME280;24008;42.664;23.372;2023-11-19T03:50:42;94694.53;;;2.08;77.71
6136;BME280;24008;42.664;23.372;2023-11-19T03:53:09;94685.81;;;1.99;78.18
6136;BME280;24008;42.664;23.372;2023-11-19T03:55:37;94589.53;;;1.37;78.25
6136;BME280;24008;42.664;23.372;2023-11-19T03:58:04;94657.91;;;1.88;78.30
6136;BME280;24008;42.664;23.372;2023-11-19T04:00:31;94695.25;;;2.10;78.77
6136;BME280;24008;42.664;23.372;2023-11-19T04:02:58;94723.81;;;2.25;78.21
6136;BME280;24008;42.664;23.372;2023-11-19T04:05:25;94531.81;;;1.06;77.94
6136;BME280;24008;42.664;23.372;2023-11-19T04:07:52;94683.84;;;2.04;78.18
6136;BME280;24008;42.664;23.372;2023-11-19T04:10:19;94657.38;;;1.83;77.95
6136;BME280;24008;42.664;23.372;2023-11-19T04:12:49;94712.00;;;2.25;78.08
6136;BME280;24008;42.664;23.372;2023-11-19T04:15:16;94729.91;;;2.21;78.33
6136;BME280;24008;42.664;23.372;2023-11-19T04:17:42;94692.47;;;2.00;77.82
6136;BME280;24008;42.664;23.372;2023-11-19T04:20:10;94729.91;;;2.21;77.83
6136;BME280;24008;42.664;23.372;2023-11-19T04:22:39;94733.16;;;2.23;78.15
6136;BME280;24008;42.664;23.372;2023-11-19T04:25:07;94718.84;;;2.23;78.40
6136;BME280;24008;42.664;23.372;2023-11-19T04:27:34;94611.31;;;1.53;78.45
6136;BME280;24008;42.664;23.372;2023-11-19T04:30:02;94719.66;;;2.24;78.60
6136;BME280;24008;42.664;23.372;2023-11-19T04:32:30;94734.63;;;2.27;77.86
6136;BME280;24008;42.664;23.372;2023-11-19T04:34:57;94586.38;;;1.34;77.91
6136;BME280;24008;42.664;23.372;2023-11-19T04:37:23;94671.41;;;1.87;78.18
6136;BME280;24008;42.664;23.372;2023-11-19T04:39:50;94437.66;;;0.38;77.98
6136;BME280;24008;42.664;23.372;2023-11-19T04:42:17;94749.00;;;2.39;78.37
6136;BME280;24008;42.664;23.372;2023-11-19T04:44:45;94711.38;;;2.22;77.75
6136;BME280;24008;42.664;23.372;2023-11-19T04:47:13;94743.75;;;2.42;77.37
6136;BME280;24008;42.664;23.372;2023-11-19T04:49:40;94691.75;;;2.12;77.52
6136;BME280;24008;42.664;23.372;2023-11-19T04:52:08;94738.94;;;2.39;76.88
6136;BME280;24008;42.664;23.372;2023-11-19T04:54:40;94730.09;;;2.17;77.17
6136;BME280;24008;42.664;23.372;2023-11-19T04:57:07;94711.53;;;2.18;76.76
6136;BME280;24008;42.664;23.372;2023-11-19T04:59:36;94737.47;;;2.35;76.82
6136;BME280;24008;42.664;23.372;2023-11-19T05:02:03;94700.47;;;2.07;76.82
6136;BME280;24008;42.664;23.372;2023-11-19T05:04:31;94654.41;;;1.76;76.62
6136;BME280;24008;42.664;23.372;2023-11-19T05:06:58;94608.78;;;1.38;76.49
6136;BME280;24008;42.664;23.372;2023-11-19T05:09:25;94730.72;;;2.07;76.33
6136;BME280;24008;42.664;23.372;2023-11-19T05:11:52;94776.94;;;2.36;76.89
6136;BME280;24008;42.664;23.372;2023-11-19T05:14:19;94800.28;;;2.39;76.49
6136;BME280;24008;42.664;23.372;2023-11-19T05:16:47;94735.84;;;2.20;76.37
6136;BME280;24008;42.664;23.372;2023-11-19T05:19:12;94649.63;;;1.58;75.86
6136;BME280;24008;42.664;23.372;2023-11-19T05:21:43;94782.25;;;2.45;75.65
6136;BME280;24008;42.664;23.372;2023-11-19T05:24:10;94519.38;;;0.89;75.64
6136;BME280;24008;42.664;23.372;2023-11-19T05:26:37;94768.47;;;2.51;75.33
6136;BME280;24008;42.664;23.372;2023-11-19T05:29:04;94765.94;;;2.51;75.52
6136;BME280;24008;42.664;23.372;2023-11-19T05:31:31;94757.81;;;2.46;75.47
6136;BME280;24008;42.664;23.372;2023-11-19T05:33:58;94681.66;;;1.98;75.56
6136;BME280;24008;42.664;23.372;2023-11-19T05:36:24;94774.22;;;2.53;75.25
6136;BME280;24008;42.664;23.372;2023-11-19T05:38:52;94785.03;;;2.55;75.23
6136;BME280;24008;42.664;23.372;2023-11-19T05:41:19;94626.69;;;1.62;75.37
6136;BME280;24008;42.664;23.372;2023-11-19T05:43:46;94772.94;;;2.60;75.42
6136;BME280;24008;42.664;23.372;2023-11-19T05:46:13;94778.00;;;2.60;74.93
6136;BME280;24008;42.664;23.372;2023-11-19T05:48:39;94672.22;;;1.88;75.01
6136;BME280;24008;42.664;23.372;2023-11-19T05:51:06;94771.31;;;2.59;75.21
6136;BME280;24008;42.664;23.372;2023-11-19T05:53:33;94628.94;;;1.67;75.29
6136;BME280;24008;42.664;23.372;2023-11-19T05:56:01;94759.78;;;2.55;75.18
6136;BME280;24008;42.664;23.372;2023-11-19T05:58:29;94774.31;;;2.51;74.84
6136;BME280;24008;42.664;23.372;2023-11-19T06:00:58;94787.03;;;2.50;74.60
6136;BME280;24008;42.664;23.372;2023-11-19T06:03:25;94756.03;;;2.34;74.59
6136;BME280;24008;42.664;23.372;2023-11-19T06:05:52;94754.97;;;2.24;75.04
6136;BME280;24008;42.664;23.372;2023-11-19T06:08:20;94774.16;;;2.26;75.18
6136;BME280;24008;42.664;23.372;2023-11-19T06:10:47;94779.63;;;2.33;75.22
6136;BME280;24008;42.664;23.372;2023-11-19T06:13:17;94813.50;;;2.57;75.91
6136;BME280;24008;42.664;23.372;2023-11-19T06:15:45;94780.34;;;2.49;75.43
6136;BME280;24008;42.664;23.372;2023-11-19T06:18:11;94823.69;;;2.70;74.57
6136;BME280;24008;42.664;23.372;2023-11-19T06:20:40;94789.34;;;2.67;75.11
6136;BME280;24008;42.664;23.372;2023-11-19T06:23:07;94740.72;;;2.37;73.96
6136;BME280;24008;42.664;23.372;2023-11-19T06:25:34;94795.28;;;2.66;74.38
6136;BME280;24008;42.664;23.372;2023-11-19T06:28:01;94797.28;;;2.75;74.93
6136;BME280;24008;42.664;23.372;2023-11-19T06:30:30;94622.22;;;1.09;74.60
6136;BME280;24008;42.664;23.372;2023-11-19T06:32:58;94782.88;;;2.63;74.29
6136;BME280;24008;42.664;23.372;2023-11-19T06:35:24;94800.22;;;2.82;74.11
6136;BME280;24008;42.664;23.372;2023-11-19T06:37:51;94771.06;;;2.64;73.91
6136;BME280;24008;42.664;23.372;2023-11-19T06:40:18;94791.94;;;2.80;73.83
6136;BME280;24008;42.664;23.372;2023-11-19T06:42:46;94804.03;;;2.75;73.61
6136;BME280;24008;42.664;23.372;2023-11-19T06:45:12;94796.06;;;2.81;73.77
6136;BME280;24008;42.664;23.372;2023-11-19T06:47:41;94804.09;;;2.87;73.86
6136;BME280;24008;42.664;23.372;2023-11-19T06:50:08;94784.34;;;2.80;73.58
6136;BME280;24008;42.664;23.372;2023-11-19T06:52:35;94777.75;;;2.92;71.84
6136;BME280;24008;42.664;23.372;2023-11-19T06:55:03;94792.16;;;3.04;72.49
6136;BME280;24008;42.664;23.372;2023-11-19T06:57:29;94774.97;;;2.82;73.37
6136;BME280;24008;42.664;23.372;2023-11-19T06:59:57;94810.38;;;3.09;73.17
6136;BME280;24008;42.664;23.372;2023-11-19T07:02:24;94694.50;;;2.36;73.02
6136;BME280;24008;42.664;23.372;2023-11-19T07:04:53;94807.50;;;3.01;72.13
6136;BME280;24008;42.664;23.372;2023-11-19T07:07:20;94824.63;;;2.96;71.87
6136;BME280;24008;42.664;23.372;2023-11-19T07:09:47;94791.47;;;2.87;72.71
6136;BME280;24008;42.664;23.372;2023-11-19T07:12:14;94828.28;;;3.18;72.04
6136;BME280;24008;42.664;23.372;2023-11-19T07:14:41;94827.03;;;3.25;71.18
6136;BME280;24008;42.664;23.372;2023-11-19T07:17:08;94834.28;;;3.30;70.51
6136;BME280;24008;42.664;23.372;2023-11-19T07:19:35;94833.13;;;3.36;70.47
6136;BME280;24008;42.664;23.372;2023-11-19T07:22:05;94815.28;;;3.24;70.49
6136;BME280;24008;42.664;23.372;2023-11-19T07:24:32;94836.22;;;3.53;70.43
6136;BME280;24008;42.664;23.372;2023-11-19T07:26:59;94824.59;;;3.24;69.05
6136;BME280;24008;42.664;23.372;2023-11-19T07:29:28;94636.28;;;2.12;68.61
6136;BME280;24008;42.664;23.372;2023-11-19T07:31:55;94859.19;;;3.36;69.37
6136;BME280;24008;42.664;23.372;2023-11-19T07:34:22;94833.50;;;3.30;70.27
6136;BME280;24008;42.664;23.372;2023-11-19T07:36:49;94718.91;;;2.50;68.89
6136;BME280;24008;42.664;23.372;2023-11-19T07:39:17;94888.00;;;3.60;68.79
6136;BME280;24008;42.664;23.372;2023-11-19T07:41:44;94874.28;;;3.50;69.85
6136;BME280;24008;42.664;23.372;2023-11-19T07:44:10;94870.44;;;3.72;68.39
6136;BME280;24008;42.664;23.372;2023-11-19T07:46:37;94898.28;;;3.57;68.02
6136;BME280;24008;42.664;23.372;2023-11-19T07:49:04;94869.59;;;3.58;68.53
6136;BME280;24008;42.664;23.372;2023-11-19T07:51:31;94865.34;;;3.59;68.09
6136;BME280;24008;42.664;23.372;2023-11-19T07:53:58;94898.00;;;3.89;68.68
6136;BME280;24008;42.664;23.372;2023-11-19T07:56:26;94708.16;;;3.02;67.91
6136;BME280;24008;42.664;23.372;2023-11-19T07:58:53;94783.66;;;3.58;67.51
6136;BME280;24008;42.664;23.372;2023-11-19T08:01:19;94780.81;;;3.50;66.12
6136;BME280;24008;42.664;23.372;2023-11-19T08:03:46;94807.47;;;3.42;66.71
6136;BME280;24008;42.664;23.372;2023-11-19T08:06:13;94885.00;;;3.68;67.06
6136;BME280;24008;42.664;23.372;2023-11-19T08:08:40;94850.72;;;3.37;67.17
6136;BME280;24008;42.664;23.372;2023-11-19T08:11:06;94768.91;;;2.99;67.56
6136;BME280;24008;42.664;23.372;2023-11-19T08:13:35;94884.91;;;4.09;67.47
6136;BME280;24008;42.664;23.372;2023-11-19T08:16:02;94885.03;;;4.20;66.58
6136;BME280;24008;42.664;23.372;2023-11-19T08:18:28;94874.00;;;4.09;66.90
6136;BME280;24008;42.664;23.372;2023-11-19T08:20:55;94906.91;;;4.21;65.90
6136;BME280;24008;42.664;23.372;2023-11-19T08:23:23;94894.56;;;4.29;66.09
6136;BME280;24008;42.664;23.372;2023-11-19T08:25:51;94797.28;;;3.83;64.60
6136;BME280;24008;42.664;23.372;2023-11-19T08:28:18;94895.91;;;4.60;65.37
6136;BME280;24008;42.664;23.372;2023-11-19T08:30:46;94901.88;;;4.72;64.20
6136;BME280;24008;42.664;23.372;2023-11-19T08:33:13;94898.13;;;4.65;64.43
6136;BME280;24008;42.664;23.372;2023-11-19T08:35:40;94781.56;;;3.78;63.70
6136;BME280;24008;42.664;23.372;2023-11-19T08:38:07;94904.00;;;4.53;64.04
6136;BME280;24008;42.664;23.372;2023-11-19T08:40:34;94902.09;;;4.69;63.84
6136;BME280;24008;42.664;23.372;2023-11-19T08:43:00;94912.69;;;5.12;63.51
6136;BME280;24008;42.664;23.372;2023-11-19T08:45:27;94878.03;;;5.49;62.05
6136;BME280;24008;42.664;23.372;2023-11-19T08:47:55;94911.19;;;5.46;60.94
6136;BME280;24008;42.664;23.372;2023-11-19T08:50:22;94775.06;;;4.88;60.51
6136;BME280;24008;42.664;23.372;2023-11-19T08:52:49;94872.06;;;5.50;60.26
6136;BME280;24008;42.664;23.372;2023-11-19T08:55:16;94903.88;;;5.91;60.38
6136;BME280;24008;42.664;23.372;2023-11-19T08:57:43;94867.75;;;5.63;58.33
6136;BME280;24008;42.664;23.372;2023-11-19T09:00:11;94742.25;;;4.74;59.52
6136;BME280;24008;42.664;23.372;2023-11-19T09:02:39;94915.25;;;6.09;59.40
6136;BME280;24008;42.664;23.372;2023-11-19T09:05:09;94895.53;;;6.47;58.39
6136;BME280;24008;42.664;23.372;2023-11-19T09:07:35;94892.25;;;6.80;55.81
6136;BME280;24008;42.664;23.372;2023-11-19T09:10:03;94883.03;;;6.33;56.53
6136;BME280;24008;42.664;23.372;2023-11-19T09:12:30;94884.91;;;6.07;57.23
6136;BME280;24008;42.664;23.372;2023-11-19T09:14:57;94888.59;;;5.79;58.55
6136;BME280;24008;42.664;23.372;2023-11-19T09:17:25;94842.72;;;5.59;59.58
6136;BME280;24008;42.664;23.372;2023-11-19T09:19:52;94878.06;;;5.73;58.98
6136;BME280;24008;42.664;23.372;2023-11-19T09:22:20;94888.59;;;6.38;57.30
6136;BME280;24008;42.664;23.372;2023-11-19T09:24:47;94860.00;;;6.47;56.56
6136;BME280;24008;42.664;23.372;2023-11-19T09:27:13;94896.50;;;6.23;56.68
6136;BME280;24008;42.664;23.372;2023-11-19T09:29:40;94907.16;;;6.04;58.02
6136;BME280;24008;42.664;23.372;2023-11-19T09:32:08;94875.75;;;5.94;57.82
6136;BME280;24008;42.664;23.372;2023-11-19T09:34:35;94895.78;;;6.56;56.58
6136;BME280;24008;42.664;23.372;2023-11-19T09:37:01;94876.69;;;6.96;54.99
6136;BME280;24008;42.664;23.372;2023-11-19T09:39:30;94844.34;;;7.09;54.08
6136;BME280;24008;42.664;23.372;2023-11-19T09:41:57;94860.72;;;7.05;53.62
6136;BME280;24008;42.664;23.372;2023-11-19T09:44:24;94802.06;;;6.97;53.62
6136;BME280;24008;42.664;23.372;2023-11-19T09:46:52;94862.78;;;7.45;52.95
6136;BME280;24008;42.664;23.372;2023-11-19T09:49:26;94857.91;;;7.42;53.35
6136;BME280;24008;42.664;23.372;2023-11-19T09:51:54;94848.91;;;7.27;51.87
6136;BME280;24008;42.664;23.372;2023-11-19T09:54:20;94826.31;;;6.68;52.73
6136;BME280;24008;42.664;23.372;2023-11-19T09:56:49;94832.00;;;6.14;54.27
6136;BME280;24008;42.664;23.372;2023-11-19T09:59:16;94768.41;;;5.34;56.05
6136;BME280;24008;42.664;23.372;2023-11-19T10:01:45;94836.78;;;5.47;57.56
6136;BME280;24008;42.664;23.372;2023-11-19T10:04:15;94829.75;;;5.27;58.39
6136;BME280;24008;42.664;23.372;2023-11-19T10:06:43;94839.69;;;5.30;59.01
6136;BME280;24008;42.664;23.372;2023-11-19T10:09:11;94734.09;;;4.70;59.45
6136;BME280;24008;42.664;23.372;2023-11-19T10:11:40;94787.94;;;5.08;59.90
6136;BME280;24008;42.664;23.372;2023-11-19T10:14:08;94831.38;;;5.75;59.13
6136;BME280;24008;42.664;23.372;2023-11-19T10:16:35;94828.25;;;5.96;58.97
6136;BME280;24008;42.664;23.372;2023-11-19T10:19:03;94676.66;;;5.18;56.92
6136;BME280;24008;42.664;23.372;2023-11-19T10:21:32;94763.69;;;6.00;57.14
6136;BME280;24008;42.664;23.372;2023-11-19T10:23:59;94846.84;;;6.54;57.01
6136;BME280;24008;42.664;23.372;2023-11-19T10:26:26;94820.59;;;6.20;55.47
6136;BME280;24008;42.664;23.372;2023-11-19T10:28:55;94823.69;;;6.12;56.30
6136;BME280;24008;42.664;23.372;2023-11-19T10:31:23;94792.31;;;6.13;57.25
6136;BME280;24008;42.664;23.372;2023-11-19T10:33:51;94822.84;;;6.46;56.64
6136;BME280;24008;42.664;23.372;2023-11-19T10:36:18;94815.06;;;6.14;56.53
6136;BME280;24008;42.664;23.372;2023-11-19T10:38:55;94812.81;;;5.99;57.70
6136;BME280;24008;42.664;23.372;2023-11-19T10:41:28;94789.28;;;5.97;57.33
6136;BME280;24008;42.664;23.372;2023-11-19T10:43:56;94771.19;;;6.01;56.70
6136;BME280;24008;42.664;23.372;2023-11-19T10:46:36;94771.19;;;6.01;56.34
6136;BME280;24008;42.664;23.372;2023-11-19T10:49:03;94813.13;;;6.40;57.41
6136;BME280;24008;42.664;23.372;2023-11-19T10:51:31;94784.59;;;6.14;56.45
6136;BME280;24008;42.664;23.372;2023-11-19T10:54:02;94734.03;;;5.54;57.36
6136;BME280;24008;42.664;23.372;2023-11-19T10:56:32;94748.75;;;5.49;57.04
6136;BME280;24008;42.664;23.372;2023-11-19T10:58:59;94784.16;;;5.51;58.20
6136;BME280;24008;42.664;23.372;2023-11-19T11:01:32;94790.41;;;5.34;58.94
6136;BME280;24008;42.664;23.372;2023-11-19T11:04:02;94793.56;;;5.25;59.00
6136;BME280;24008;42.664;23.372;2023-11-19T11:06:30;94796.53;;;4.95;60.15
6136;BME280;24008;42.664;23.372;2023-11-19T11:08:57;94788.53;;;4.88;60.36
6136;BME280;24008;42.664;23.372;2023-11-19T11:11:25;94800.28;;;4.89;59.82
6136;BME280;24008;42.664;23.372;2023-11-19T11:13:53;94654.28;;;3.91;60.68
6136;BME280;24008;42.664;23.372;2023-11-19T11:16:22;94796.81;;;4.90;61.14
6136;BME280;24008;42.664;23.372;2023-11-19T11:18:52;94786.91;;;4.87;61.17
6136;BME280;24008;42.664;23.372;2023-11-19T11:21:21;94792.53;;;5.03;62.25
6136;BME280;24008;42.664;23.372;2023-11-19T11:24:16;94688.66;;;4.56;62.27
6136;BME280;24008;42.664;23.372;2023-11-19T11:27:02;94763.94;;;5.14;60.26
6136;BME280;24008;42.664;23.372;2023-11-19T11:29:38;94735.94;;;5.16;60.51
6136;BME280;24008;42.664;23.372;2023-11-19T11:32:15;94678.63;;;4.91;59.54
6136;BME280;24008;42.664;23.372;2023-11-19T11:35:16;94787.69;;;5.72;59.23
6136;BME280;24008;42.664;23.372;2023-11-19T11:37:47;94723.28;;;5.39;59.57
6136;BME280;24008;42.664;23.372;2023-11-19T11:40:17;94728.88;;;5.32;58.39
6136;BME280;24008;42.664;23.372;2023-11-19T11:42:44;94787.22;;;5.67;58.55
6136;BME280;24008;42.664;23.372;2023-11-19T11:45:12;94738.97;;;5.56;58.83
6136;BME280;24008;42.664;23.372;2023-11-19T11:50:55;94555.81;;;4.38;58.80
6136;BME280;24008;42.664;23.372;2023-11-19T11:53:23;94570.63;;;4.55;58.69
6136;BME280;24008;42.664;23.372;2023-11-19T11:55:57;94670.97;;;5.03;59.23
6136;BME280;24008;42.664;23.372;2023-11-19T11:58:30;94569.09;;;4.28;59.21
6136;BME280;24008;42.664;23.372;2023-11-19T12:00:58;94797.41;;;5.54;58.92
6136;BME280;24008;42.664;23.372;2023-11-19T12:03:33;94422.09;;;3.38;59.24
6136;BME280;24008;42.664;23.372;2023-11-19T12:06:01;94317.00;;;2.62;58.65
6136;BME280;24008;42.664;23.372;2023-11-19T12:08:29;94694.63;;;4.91;59.17
6136;BME280;24008;42.664;23.372;2023-11-19T12:10:58;94770.72;;;5.37;59.92
6136;BME280;24008;42.664;23.372;2023-11-19T12:16:13;94471.50;;;3.66;59.90
6136;BME280;24008;42.664;23.372;2023-11-19T12:18:40;94759.59;;;5.51;60.11
6136;BME280;24008;42.664;23.372;2023-11-19T12:21:09;94369.78;;;3.14;59.93
6136;BME280;24008;42.664;23.372;2023-11-19T12:23:45;94737.25;;;5.56;59.74
6136;BME280;24008;42.664;23.372;2023-11-19T12:26:35;94756.31;;;5.38;59.87
6136;BME280;24008;42.664;23.372;2023-11-19T12:29:03;94288.28;;;2.52;59.74
6136;BME280;24008;42.664;23.372;2023-11-19T12:31:33;94738.28;;;5.19;59.99
6136;BME280;24008;42.664;23.372;2023-11-19T12:34:08;94744.47;;;5.15;60.08
6136;BME280;24008;42.664;23.372;2023-11-19T12:36:40;94721.88;;;5.12;60.34
6136;BME280;24008;42.664;23.372;2023-11-19T12:39:07;94487.53;;;3.28;60.74
6136;BME280;24008;42.664;23.372;2023-11-19T12:41:56;94726.34;;;5.08;60.51
6136;BME280;24008;42.664;23.372;2023-11-19T12:44:24;94730.72;;;5.06;61.48
6136;BME280;24008;42.664;23.372;2023-11-19T12:47:02;94718.06;;;5.06;61.20
6136;BME280;24008;42.664;23.372;2023-11-19T12:49:29;94720.22;;;4.99;60.94
6136;BME280;24008;42.664;23.372;2023-11-19T12:51:58;94712.34;;;4.91;61.56
6136;BME280;24008;42.664;23.372;2023-11-19T12:54:35;94672.19;;;4.74;61.48
6136;BME280;24008;42.664;23.372;2023-11-19T12:57:02;94717.88;;;4.96;62.10
6136;BME280;24008;42.664;23.372;2023-11-19T12:59:30;94713.31;;;5.01;62.92
6136;BME280;24008;42.664;23.372;2023-11-19T13:01:57;94708.03;;;5.04;62.06
6136;BME280;24008;42.664;23.372;2023-11-19T13:04:28;94640.19;;;4.73;62.16
6136;BME280;24008;42.664;23.372;2023-11-19T13:06:57;94696.34;;;5.15;62.01
6136;BME280;24008;42.664;23.372;2023-11-19T13:09:25;94697.41;;;4.99;62.49
6136;BME280;24008;42.664;23.372;2023-11-19T13:11:52;94696.59;;;5.23;61.94
6136;BME280;24008;42.664;23.372;2023-11-19T13:14:20;94698.22;;;5.24;62.00
6136;BME280;24008;42.664;23.372;2023-11-19T13:16:46;94711.56;;;5.26;61.43
6136;BME280;24008;42.664;23.372;2023-11-19T13:19:14;94713.19;;;5.27;61.45
6136;BME280;24008;42.664;23.372;2023-11-19T13:21:41;94206.66;;;1.91;61.50